Sunday, February 17, 2019, 3:08 PM EST
Back to Local

KFRG, Farmingdale Republic Airport

Location: Farmingdale, NY, United States Lat: 40.733
Local Time: 3:08 PM EST (20:08 GMT) Lon: -73.417
Time Zone: US/Eastern Elev: 82 ft

Show me the last for .
Show Decoded

2019-02-17 14:53 METAR KFRG 171953Z 19009KT 10SM CLR 00/M09 A3010 RMK AO2 SLP192 T00001089 =
2019-02-17 13:53 METAR KFRG 171853Z 17007KT 10SM CLR 00/M09 A3012 RMK AO2 SLP201 T00001089 =
2019-02-17 12:53 METAR KFRG 171753Z 19009KT 10SM CLR 01/M09 A3015 RMK AO2 SLP211 T00111089 10022
                 21044 55002 =
2019-02-17 11:53 METAR KFRG 171653Z 00000KT 10SM CLR 01/M11 A3010 RMK AO2 SLP194 T00111106 =
2019-02-17 10:53 METAR KFRG 171553Z VRB03KT 10SM CLR 01/M11 A3014 RMK AO2 SLP206 T00061106 =
2019-02-17 09:53 METAR KFRG 171453Z 04008KT 10SM CLR 00/M11 A3016 RMK AO2 SLP213 T00001106 50017
                 =
2019-02-17 08:53 METAR KFRG 171353Z 03009KT 10SM CLR M02/M11 A3017 RMK AO2 SLP215 T10171106 =
2019-02-17 07:53 METAR KFRG 171253Z 01007KT 10SM CLR M03/M10 A3015 RMK AO2 SLP208 T10281100 =
2019-02-17 06:53 METAR KFRG 171153Z 36006KT 10SM CLR M04/M10 A3011 RMK AO2 PRESRR SLP196
                 T10441100 11017 21044 51017 =
2019-02-17 05:53 METAR KFRG 171053Z AUTO 02005KT 10SM CLR M04/M10 A3009 RMK AO2 SLP188 T10441100
                 =
2019-02-17 04:53 METAR KFRG 170953Z AUTO 36008KT 10SM CLR M04/M11 A3009 RMK AO2 SLP188 T10391106
                 =
2019-02-17 03:53 METAR KFRG 170853Z AUTO 36006KT 10SM CLR M04/M10 A3006 RMK AO2 SLP178 T10391100
                 53003 =
2019-02-17 02:53 METAR KFRG 170753Z AUTO 36008KT 10SM CLR M03/M10 A3004 RMK AO2 SLP172 T10281100
                 =
2019-02-17 01:53 METAR KFRG 170653Z AUTO 36011KT 10SM CLR M03/M10 A3005 RMK AO2 SLP175 T10281100
                 =
2019-02-17 00:53 METAR KFRG 170553Z 34013KT 10SM CLR M02/M10 A3005 RMK AO2 SLP175 T10171100 10033
                 21017 51017 =
2019-02-16 23:53 METAR KFRG 170453Z 36014KT 10SM CLR M01/M11 A3003 RMK AO2 SLP169 T10111106
                 401061011 =
2019-02-16 22:53 METAR KFRG 170353Z 36008KT 10SM CLR M01/M10 A3002 RMK AO2 SLP165 T10111100 =
2019-02-16 21:53 METAR KFRG 170253Z 02010KT 10SM CLR 00/M09 A3000 RMK AO2 SLP158 T00001089 53027
                 =
2019-02-16 20:53 METAR KFRG 170153Z 03011KT 10SM CLR 01/M07 A2996 RMK AO2 SLP146 T00111072 =
2019-02-16 19:53 METAR KFRG 170053Z 32003KT 10SM CLR 02/M08 A2994 RMK AO2 SLP138 T00221078 =
2019-02-16 18:53 METAR KFRG 162353Z 32005KT 10SM CLR 03/M08 A2992 RMK AO2 SLP130 T00331083 10061
                 20033 53022 =
2019-02-16 17:53 METAR KFRG 162253Z 33008KT 10SM CLR 04/M08 A2989 RMK AO2 SLP122 T00391078 =
2019-02-16 16:53 METAR KFRG 162153Z 33009KT 10SM CLR 05/M08 A2986 RMK AO2 SLP111 T00501078 =
2019-02-16 15:53 METAR KFRG 162053Z 33011KT 10SM CLR 06/M08 A2985 RMK AO2 SLP108 T00561083 53005
                 =

Support USWX by starting your Amazon purchase here.